Portada
METAR-TAF:

METAR-TAF

Aeroports :

Fritzlar, Alemanya

latitud: 51-07N, longitud: 009-17E, altitud: 172 m

Observació

L'informe es va fer fa 48 minuts, a les 10:20 UTC
Vent 3 kt del Oest/Nord-Oest
Temperatura 16°C
Humitat 68%
Pressió 1018 hPa
Visibilitat 10 km o més
Cel cobert a una alçada de 2300 ft

METAR: ETHF 161020Z 30003KT 9999 OVC023 16/10 Q1018 WHT WHT BECMG BLU

Hora: 13:08 (11:08 UTC)

Pronòstic

L'informe es va fer fa 1 hora i 3 minuts, a les 10:05 UTC
Pronòstic vàlid del 16 a les 11 UTC al 16 a les 20 UTC
Vent 5 kt del Oest/Nord-Oest
Visibilitat 10 km o més
Cel ennuvolat a una alçada de 2300 ft
Evolucionant progressivament
l' 16 a les 11 UTC al 16 a les 13 UTC
Vent 7 kt del Nord-Oest
Visibilitat 10 km o més
Cel ennuvolat a una alçada de 2500 ft

TAF: ETHF 161005Z 1611/1620 30005KT 9999 NSW BKN023 BECMG 1611/1613 32007KT 9999 NSW BKN025

Observacions i pronòstics meteorològics de més de 4000 aeroports (METAR i TAF).

Les estacions disponibles són els punts grocs i vermells al mapa.

Posi el ratolí al punt desitjat per veure el nom de l'estació.

Feu clic per veure les observacions i els pronòstics meteorològics.

Per canviar el mapa: feu clic els botons verds amb una creu de color negre per apropar; al botó verd amb un guió per allunyar la imatge; o en les fletxes verdes per a mapes adjacents.


METAR-TAF: